sensor_id;sensor_type;location;lat;lon;timestamp;pressure;altitude;pressure_sealevel;temperature;humidity
6524;BME280;3295;38.928;-77.052;2023-02-28T00:01:55;99890.34;;;10.10;97.81
6524;BME280;3295;38.928;-77.052;2023-02-28T00:04:23;99873.91;;;10.24;93.25
6524;BME280;3295;38.928;-77.052;2023-02-28T00:06:53;99820.81;;;10.36;95.70
6524;BME280;3295;38.928;-77.052;2023-02-28T00:09:21;99802.63;;;10.27;98.19
6524;BME280;3295;38.928;-77.052;2023-02-28T00:11:49;99764.59;;;10.08;100.00
6524;BME280;3295;38.928;-77.052;2023-02-28T00:14:16;99748.56;;;9.86;100.00
6524;BME280;3295;38.928;-77.052;2023-02-28T00:16:44;99734.41;;;9.69;100.00
6524;BME280;3295;38.928;-77.052;2023-02-28T00:19:12;99764.09;;;9.69;100.00
6524;BME280;3295;38.928;-77.052;2023-02-28T00:21:40;99807.50;;;9.73;100.00
6524;BME280;3295;38.928;-77.052;2023-02-28T00:24:11;99869.88;;;9.62;100.00
6524;BME280;3295;38.928;-77.052;2023-02-28T00:26:39;99819.53;;;9.77;100.00
6524;BME280;3295;38.928;-77.052;2023-02-28T00:29:07;99805.75;;;9.72;100.00
6524;BME280;3295;38.928;-77.052;2023-02-28T00:31:34;99791.22;;;9.46;100.00
6524;BME280;3295;38.928;-77.052;2023-02-28T00:34:02;99790.47;;;9.48;100.00
6524;BME280;3295;38.928;-77.052;2023-02-28T00:36:30;99768.69;;;9.33;100.00
6524;BME280;3295;38.928;-77.052;2023-02-28T00:38:58;99712.34;;;9.00;100.00
6524;BME280;3295;38.928;-77.052;2023-02-28T00:41:27;99740.56;;;8.83;100.00
6524;BME280;3295;38.928;-77.052;2023-02-28T00:43:55;99792.06;;;9.00;100.00
6524;BME280;3295;38.928;-77.052;2023-02-28T00:46:23;99763.31;;;9.03;100.00
6524;BME280;3295;38.928;-77.052;2023-02-28T00:48:50;99690.69;;;8.87;100.00
6524;BME280;3295;38.928;-77.052;2023-02-28T00:51:18;99694.13;;;8.89;100.00
6524;BME280;3295;38.928;-77.052;2023-02-28T00:53:47;99722.75;;;8.83;100.00
6524;BME280;3295;38.928;-77.052;2023-02-28T00:56:14;99720.63;;;8.72;100.00
6524;BME280;3295;38.928;-77.052;2023-02-28T00:58:44;99754.69;;;8.77;100.00
6524;BME280;3295;38.928;-77.052;2023-02-28T01:01:12;99725.66;;;8.49;100.00
6524;BME280;3295;38.928;-77.052;2023-02-28T01:03:40;99669.34;;;8.18;100.00
6524;BME280;3295;38.928;-77.052;2023-02-28T01:06:08;99540.31;;;7.87;100.00
6524;BME280;3295;38.928;-77.052;2023-02-28T01:08:36;99527.94;;;7.74;100.00
6524;BME280;3295;38.928;-77.052;2023-02-28T01:11:08;99547.75;;;7.82;100.00
6524;BME280;3295;38.928;-77.052;2023-02-28T01:13:37;99570.38;;;7.99;100.00
6524;BME280;3295;38.928;-77.052;2023-02-28T01:16:07;99576.66;;;8.29;100.00
6524;BME280;3295;38.928;-77.052;2023-02-28T01:18:35;99587.06;;;8.35;100.00
6524;BME280;3295;38.928;-77.052;2023-02-28T01:21:04;99564.63;;;8.25;100.00
6524;BME280;3295;38.928;-77.052;2023-02-28T01:23:32;99549.19;;;8.19;100.00
6524;BME280;3295;38.928;-77.052;2023-02-28T01:26:04;99533.44;;;8.07;100.00
6524;BME280;3295;38.928;-77.052;2023-02-28T01:28:33;99551.28;;;8.08;100.00
6524;BME280;3295;38.928;-77.052;2023-02-28T01:31:01;99573.50;;;7.71;100.00
6524;BME280;3295;38.928;-77.052;2023-02-28T01:33:30;99591.94;;;7.67;100.00
6524;BME280;3295;38.928;-77.052;2023-02-28T01:35:59;99587.50;;;7.61;100.00
6524;BME280;3295;38.928;-77.052;2023-02-28T01:38:27;99576.91;;;7.71;100.00
6524;BME280;3295;38.928;-77.052;2023-02-28T01:40:55;99562.63;;;7.73;100.00
6524;BME280;3295;38.928;-77.052;2023-02-28T01:43:25;99559.50;;;8.01;100.00
6524;BME280;3295;38.928;-77.052;2023-02-28T01:45:55;99556.69;;;7.95;100.00
6524;BME280;3295;38.928;-77.052;2023-02-28T01:48:24;99547.47;;;7.97;100.00
6524;BME280;3295;38.928;-77.052;2023-02-28T01:51:00;99540.31;;;8.09;100.00
6524;BME280;3295;38.928;-77.052;2023-02-28T01:53:34;99529.09;;;8.03;100.00
6524;BME280;3295;38.928;-77.052;2023-02-28T01:56:04;99501.94;;;7.79;100.00
6524;BME280;3295;38.928;-77.052;2023-02-28T01:58:33;99455.22;;;7.74;100.00
6524;BME280;3295;38.928;-77.052;2023-02-28T02:01:02;99471.78;;;7.44;100.00
6524;BME280;3295;38.928;-77.052;2023-02-28T02:03:31;99505.41;;;7.81;100.00
6524;BME280;3295;38.928;-77.052;2023-02-28T02:06:00;99488.81;;;7.90;100.00
6524;BME280;3295;38.928;-77.052;2023-02-28T02:08:30;99495.38;;;8.07;100.00
6524;BME280;3295;38.928;-77.052;2023-02-28T02:11:00;99486.06;;;8.06;100.00
6524;BME280;3295;38.928;-77.052;2023-02-28T02:13:48;99477.03;;;7.92;100.00
6524;BME280;3295;38.928;-77.052;2023-02-28T02:16:35;99458.50;;;7.72;100.00
6524;BME280;3295;38.928;-77.052;2023-02-28T02:19:20;99427.81;;;7.66;100.00
6524;BME280;3295;38.928;-77.052;2023-02-28T02:22:20;99423.38;;;7.60;100.00
6524;BME280;3295;38.928;-77.052;2023-02-28T02:25:16;99425.59;;;7.73;100.00
6524;BME280;3295;38.928;-77.052;2023-02-28T02:27:59;99419.41;;;7.67;100.00
6524;BME280;3295;38.928;-77.052;2023-02-28T02:30:45;99407.03;;;7.74;100.00
6524;BME280;3295;38.928;-77.052;2023-02-28T02:36:31;99389.81;;;7.67;100.00
6524;BME280;3295;38.928;-77.052;2023-02-28T02:39:06;99386.47;;;7.68;100.00
6524;BME280;3295;38.928;-77.052;2023-02-28T02:41:43;99374.22;;;7.80;100.00
6524;BME280;3295;38.928;-77.052;2023-02-28T02:44:18;99376.31;;;7.68;100.00
6524;BME280;3295;38.928;-77.052;2023-02-28T02:46:49;99373.09;;;7.72;100.00
6524;BME280;3295;38.928;-77.052;2023-02-28T02:49:22;99364.69;;;7.73;100.00
6524;BME280;3295;38.928;-77.052;2023-02-28T02:51:54;99348.88;;;7.58;100.00
6524;BME280;3295;38.928;-77.052;2023-02-28T02:54:26;99335.50;;;7.40;100.00
6524;BME280;3295;38.928;-77.052;2023-02-28T02:56:58;99327.69;;;7.34;100.00
6524;BME280;3295;38.928;-77.052;2023-02-28T02:59:28;99327.81;;;7.37;100.00
6524;BME280;3295;38.928;-77.052;2023-02-28T03:02:00;99307.88;;;7.24;100.00
6524;BME280;3295;38.928;-77.052;2023-02-28T03:04:32;99270.53;;;7.20;100.00
6524;BME280;3295;38.928;-77.052;2023-02-28T03:07:03;99281.69;;;7.25;100.00
6524;BME280;3295;38.928;-77.052;2023-02-28T03:09:33;99284.22;;;7.25;100.00
6524;BME280;3295;38.928;-77.052;2023-02-28T03:12:02;99280.19;;;7.30;100.00
6524;BME280;3295;38.928;-77.052;2023-02-28T03:14:40;99286.66;;;7.22;100.00
6524;BME280;3295;38.928;-77.052;2023-02-28T03:17:24;99281.47;;;7.19;100.00
6524;BME280;3295;38.928;-77.052;2023-02-28T03:20:15;99282.91;;;7.34;100.00
6524;BME280;3295;38.928;-77.052;2023-02-28T03:22:55;99272.06;;;7.38;100.00
6524;BME280;3295;38.928;-77.052;2023-02-28T03:25:33;99273.63;;;7.35;100.00
6524;BME280;3295;38.928;-77.052;2023-02-28T03:28:14;99273.75;;;7.38;100.00
6524;BME280;3295;38.928;-77.052;2023-02-28T03:30:49;99262.75;;;7.61;100.00
6524;BME280;3295;38.928;-77.052;2023-02-28T03:33:22;99283.78;;;7.35;100.00
6524;BME280;3295;38.928;-77.052;2023-02-28T03:35:54;99277.47;;;7.25;100.00
6524;BME280;3295;38.928;-77.052;2023-02-28T03:38:28;99272.25;;;7.67;100.00
6524;BME280;3295;38.928;-77.052;2023-02-28T03:41:00;99267.09;;;7.64;100.00
6524;BME280;3295;38.928;-77.052;2023-02-28T03:43:33;99256.63;;;7.78;100.00
6524;BME280;3295;38.928;-77.052;2023-02-28T03:46:07;99253.00;;;7.97;100.00
6524;BME280;3295;38.928;-77.052;2023-02-28T03:48:40;99234.47;;;7.74;100.00
6524;BME280;3295;38.928;-77.052;2023-02-28T03:51:14;99228.03;;;7.60;100.00
6524;BME280;3295;38.928;-77.052;2023-02-28T03:53:48;99220.22;;;7.54;100.00
6524;BME280;3295;38.928;-77.052;2023-02-28T03:56:20;99236.28;;;7.55;100.00
6524;BME280;3295;38.928;-77.052;2023-02-28T03:58:54;99241.03;;;7.69;100.00
6524;BME280;3295;38.928;-77.052;2023-02-28T04:01:26;99251.69;;;7.83;100.00
6524;BME280;3295;38.928;-77.052;2023-02-28T04:03:55;99328.31;;;7.97;100.00
6524;BME280;3295;38.928;-77.052;2023-02-28T04:06:24;99523.41;;;8.10;100.00
6524;BME280;3295;38.928;-77.052;2023-02-28T04:08:54;99460.00;;;8.34;100.00
6524;BME280;3295;38.928;-77.052;2023-02-28T04:11:26;99326.94;;;8.30;100.00
6524;BME280;3295;38.928;-77.052;2023-02-28T04:13:55;99351.13;;;8.20;100.00
6524;BME280;3295;38.928;-77.052;2023-02-28T04:16:23;99398.56;;;8.21;100.00
6524;BME280;3295;38.928;-77.052;2023-02-28T04:18:51;99360.41;;;8.42;100.00
6524;BME280;3295;38.928;-77.052;2023-02-28T04:21:19;99341.69;;;8.40;100.00
6524;BME280;3295;38.928;-77.052;2023-02-28T04:23:48;99359.53;;;8.42;100.00
6524;BME280;3295;38.928;-77.052;2023-02-28T04:26:17;99347.88;;;8.48;100.00
6524;BME280;3295;38.928;-77.052;2023-02-28T04:28:45;99342.41;;;8.62;100.00
6524;BME280;3295;38.928;-77.052;2023-02-28T04:31:13;99320.97;;;8.53;100.00
6524;BME280;3295;38.928;-77.052;2023-02-28T04:33:41;99313.13;;;8.47;100.00
6524;BME280;3295;38.928;-77.052;2023-02-28T04:36:09;99308.06;;;8.47;100.00
6524;BME280;3295;38.928;-77.052;2023-02-28T04:38:38;99283.97;;;8.36;100.00
6524;BME280;3295;38.928;-77.052;2023-02-28T04:41:06;99277.38;;;8.41;100.00
6524;BME280;3295;38.928;-77.052;2023-02-28T04:43:35;99266.16;;;8.35;100.00
6524;BME280;3295;38.928;-77.052;2023-02-28T04:46:04;99262.59;;;8.30;100.00
6524;BME280;3295;38.928;-77.052;2023-02-28T04:48:34;99268.41;;;8.27;100.00
6524;BME280;3295;38.928;-77.052;2023-02-28T04:51:02;99273.75;;;8.33;100.00
6524;BME280;3295;38.928;-77.052;2023-02-28T04:53:31;99271.78;;;8.26;100.00
6524;BME280;3295;38.928;-77.052;2023-02-28T04:55:59;99269.56;;;8.35;100.00
6524;BME280;3295;38.928;-77.052;2023-02-28T04:58:27;99259.19;;;8.29;100.00
6524;BME280;3295;38.928;-77.052;2023-02-28T05:01:02;99247.78;;;8.42;100.00
6524;BME280;3295;38.928;-77.052;2023-02-28T05:03:30;99225.06;;;8.46;100.00
6524;BME280;3295;38.928;-77.052;2023-02-28T05:05:58;99216.44;;;8.41;100.00
6524;BME280;3295;38.928;-77.052;2023-02-28T05:08:26;99206.25;;;8.41;100.00
6524;BME280;3295;38.928;-77.052;2023-02-28T05:10:55;99189.19;;;8.37;100.00
6524;BME280;3295;38.928;-77.052;2023-02-28T05:13:23;99175.78;;;8.41;100.00
6524;BME280;3295;38.928;-77.052;2023-02-28T05:15:51;99168.97;;;8.40;100.00
6524;BME280;3295;38.928;-77.052;2023-02-28T05:18:20;99161.13;;;8.33;100.00
6524;BME280;3295;38.928;-77.052;2023-02-28T05:20:48;99163.03;;;8.40;100.00
6524;BME280;3295;38.928;-77.052;2023-02-28T05:23:16;99163.69;;;8.34;100.00
6524;BME280;3295;38.928;-77.052;2023-02-28T05:25:45;99166.22;;;8.34;100.00
6524;BME280;3295;38.928;-77.052;2023-02-28T05:28:12;99162.81;;;8.32;100.00
6524;BME280;3295;38.928;-77.052;2023-02-28T05:30:40;99170.50;;;8.35;100.00
6524;BME280;3295;38.928;-77.052;2023-02-28T05:33:11;99159.47;;;8.33;100.00
6524;BME280;3295;38.928;-77.052;2023-02-28T05:35:41;99156.13;;;8.36;100.00
6524;BME280;3295;38.928;-77.052;2023-02-28T05:38:09;99155.31;;;8.37;100.00
6524;BME280;3295;38.928;-77.052;2023-02-28T05:40:38;99161.13;;;8.33;100.00
6524;BME280;3295;38.928;-77.052;2023-02-28T05:43:09;99167.06;;;8.33;100.00
6524;BME280;3295;38.928;-77.052;2023-02-28T05:45:37;99156.91;;;8.33;100.00
6524;BME280;3295;38.928;-77.052;2023-02-28T05:48:05;99157.84;;;8.37;100.00
6524;BME280;3295;38.928;-77.052;2023-02-28T05:50:33;99168.34;;;8.47;100.00
6524;BME280;3295;38.928;-77.052;2023-02-28T05:53:03;99157.34;;;8.48;100.00
6524;BME280;3295;38.928;-77.052;2023-02-28T05:55:31;99159.09;;;8.49;100.00
6524;BME280;3295;38.928;-77.052;2023-02-28T05:57:59;99156.28;;;8.40;100.00
6524;BME280;3295;38.928;-77.052;2023-02-28T06:00:27;99164.50;;;8.08;100.00
6524;BME280;3295;38.928;-77.052;2023-02-28T06:02:55;99164.81;;;7.90;100.00
6524;BME280;3295;38.928;-77.052;2023-02-28T06:05:25;99146.97;;;7.89;100.00
6524;BME280;3295;38.928;-77.052;2023-02-28T06:07:53;99151.63;;;8.02;100.00
6524;BME280;3295;38.928;-77.052;2023-02-28T06:10:23;99187.22;;;8.03;100.00
6524;BME280;3295;38.928;-77.052;2023-02-28T06:12:51;99190.47;;;7.99;100.00
6524;BME280;3295;38.928;-77.052;2023-02-28T06:15:18;99167.47;;;7.95;100.00
6524;BME280;3295;38.928;-77.052;2023-02-28T06:17:46;99178.81;;;8.04;100.00
6524;BME280;3295;38.928;-77.052;2023-02-28T06:20:14;99154.69;;;7.92;100.00
6524;BME280;3295;38.928;-77.052;2023-02-28T06:22:42;99174.47;;;8.02;100.00
6524;BME280;3295;38.928;-77.052;2023-02-28T06:25:10;99154.47;;;8.11;100.00
6524;BME280;3295;38.928;-77.052;2023-02-28T06:27:40;99159.44;;;8.08;100.00
6524;BME280;3295;38.928;-77.052;2023-02-28T06:30:09;99154.34;;;8.08;100.00
6524;BME280;3295;38.928;-77.052;2023-02-28T06:32:36;99186.88;;;8.18;100.00
6524;BME280;3295;38.928;-77.052;2023-02-28T06:35:05;99165.53;;;8.13;100.00
6524;BME280;3295;38.928;-77.052;2023-02-28T06:37:33;99141.31;;;7.97;100.00
6524;BME280;3295;38.928;-77.052;2023-02-28T06:40:01;99140.19;;;7.88;100.00
6524;BME280;3295;38.928;-77.052;2023-02-28T06:42:31;99139.72;;;7.99;100.00
6524;BME280;3295;38.928;-77.052;2023-02-28T06:45:01;99157.81;;;8.10;100.00
6524;BME280;3295;38.928;-77.052;2023-02-28T06:47:35;99159.38;;;8.05;100.00
6524;BME280;3295;38.928;-77.052;2023-02-28T06:50:05;99167.41;;;7.93;100.00
6524;BME280;3295;38.928;-77.052;2023-02-28T06:52:33;99170.91;;;7.97;100.00
6524;BME280;3295;38.928;-77.052;2023-02-28T06:55:03;99169.69;;;8.11;100.00
6524;BME280;3295;38.928;-77.052;2023-02-28T06:57:33;99160.78;;;8.24;100.00
6524;BME280;3295;38.928;-77.052;2023-02-28T07:00:06;99164.59;;;8.36;100.00
6524;BME280;3295;38.928;-77.052;2023-02-28T07:02:35;99175.91;;;8.20;100.00
6524;BME280;3295;38.928;-77.052;2023-02-28T07:05:04;99182.66;;;8.18;100.00
6524;BME280;3295;38.928;-77.052;2023-02-28T07:07:32;99175.06;;;8.20;100.00
6524;BME280;3295;38.928;-77.052;2023-02-28T07:10:02;99178.22;;;8.13;100.00
6524;BME280;3295;38.928;-77.052;2023-02-28T07:12:30;99173.16;;;8.13;100.00
6524;BME280;3295;38.928;-77.052;2023-02-28T07:14:58;99181.59;;;8.12;100.00
6524;BME280;3295;38.928;-77.052;2023-02-28T07:17:27;99161.97;;;8.08;100.00
6524;BME280;3295;38.928;-77.052;2023-02-28T07:19:55;99163.38;;;8.25;100.00
6524;BME280;3295;38.928;-77.052;2023-02-28T07:22:23;99171.28;;;8.33;100.00
6524;BME280;3295;38.928;-77.052;2023-02-28T07:24:51;99163.38;;;8.25;100.00
6524;BME280;3295;38.928;-77.052;2023-02-28T07:27:19;99157.81;;;8.10;100.00
6524;BME280;3295;38.928;-77.052;2023-02-28T07:29:52;99150.09;;;8.07;100.00
6524;BME280;3295;38.928;-77.052;2023-02-28T07:32:20;99153.06;;;8.19;100.00
6524;BME280;3295;38.928;-77.052;2023-02-28T07:34:50;99156.63;;;8.26;100.00
6524;BME280;3295;38.928;-77.052;2023-02-28T07:37:18;99159.22;;;8.27;100.00
6524;BME280;3295;38.928;-77.052;2023-02-28T07:39:46;99163.59;;;8.31;100.00
6524;BME280;3295;38.928;-77.052;2023-02-28T07:42:14;99159.41;;;8.32;100.00
6524;BME280;3295;38.928;-77.052;2023-02-28T07:44:41;99165.41;;;8.35;100.00
6524;BME280;3295;38.928;-77.052;2023-02-28T07:47:10;99172.22;;;8.36;100.00
6524;BME280;3295;38.928;-77.052;2023-02-28T07:49:38;99175.28;;;8.26;100.00
6524;BME280;3295;38.928;-77.052;2023-02-28T07:52:07;99176.22;;;8.30;100.00
6524;BME280;3295;38.928;-77.052;2023-02-28T07:54:35;99173.84;;;8.34;100.00
6524;BME280;3295;38.928;-77.052;2023-02-28T07:57:03;99171.91;;;8.27;100.00
6524;BME280;3295;38.928;-77.052;2023-02-28T07:59:31;99176.28;;;8.31;100.00
6524;BME280;3295;38.928;-77.052;2023-02-28T08:01:59;99176.50;;;8.12;100.00
6524;BME280;3295;38.928;-77.052;2023-02-28T08:04:27;99175.47;;;8.05;100.00
6524;BME280;3295;38.928;-77.052;2023-02-28T08:06:54;99191.84;;;8.15;100.00
6524;BME280;3295;38.928;-77.052;2023-02-28T08:09:24;99187.16;;;8.27;100.00
6524;BME280;3295;38.928;-77.052;2023-02-28T08:11:52;99185.03;;;8.14;100.00
6524;BME280;3295;38.928;-77.052;2023-02-28T08:14:20;99184.94;;;8.11;100.00
6524;BME280;3295;38.928;-77.052;2023-02-28T08:16:48;99178.66;;;8.00;100.00
6524;BME280;3295;38.928;-77.052;2023-02-28T08:19:15;99176.50;;;8.12;100.00
6524;BME280;3295;38.928;-77.052;2023-02-28T08:21:43;99185.84;;;8.13;100.00
6524;BME280;3295;38.928;-77.052;2023-02-28T08:24:11;99186.25;;;8.00;100.00
6524;BME280;3295;38.928;-77.052;2023-02-28T08:26:40;99176.00;;;7.97;100.00
6524;BME280;3295;38.928;-77.052;2023-02-28T08:29:08;99183.84;;;8.03;100.00
6524;BME280;3295;38.928;-77.052;2023-02-28T08:31:36;99179.34;;;7.96;100.00
6524;BME280;3295;38.928;-77.052;2023-02-28T08:34:06;99188.09;;;8.04;100.00
6524;BME280;3295;38.928;-77.052;2023-02-28T08:36:37;99193.25;;;8.07;100.00
6524;BME280;3295;38.928;-77.052;2023-02-28T08:39:05;99196.91;;;8.15;100.00
6524;BME280;3295;38.928;-77.052;2023-02-28T08:41:33;99196.81;;;8.12;100.00
6524;BME280;3295;38.928;-77.052;2023-02-28T08:44:02;99192.97;;;7.98;100.00
6524;BME280;3295;38.928;-77.052;2023-02-28T08:46:30;99202.81;;;7.89;100.00
6524;BME280;3295;38.928;-77.052;2023-02-28T08:48:58;99193.38;;;7.84;100.00
6524;BME280;3295;38.928;-77.052;2023-02-28T08:51:28;99207.16;;;7.93;100.00
6524;BME280;3295;38.928;-77.052;2023-02-28T08:53:58;99196.13;;;7.91;100.00
6524;BME280;3295;38.928;-77.052;2023-02-28T08:56:27;99207.16;;;7.93;100.00
6524;BME280;3295;38.928;-77.052;2023-02-28T08:58:56;99205.81;;;8.02;100.00
6524;BME280;3295;38.928;-77.052;2023-02-28T09:01:27;99205.81;;;8.02;100.00
6524;BME280;3295;38.928;-77.052;2023-02-28T09:03:56;99220.38;;;8.08;100.00
6524;BME280;3295;38.928;-77.052;2023-02-28T09:06:26;99209.28;;;8.04;100.00
6524;BME280;3295;38.928;-77.052;2023-02-28T09:08:57;99218.69;;;7.83;100.00
6524;BME280;3295;38.928;-77.052;2023-02-28T09:11:27;99210.72;;;7.72;100.00
6524;BME280;3295;38.928;-77.052;2023-02-28T09:13:55;99208.25;;;7.50;100.00
6524;BME280;3295;38.928;-77.052;2023-02-28T09:16:25;99225.94;;;7.48;100.00
6524;BME280;3295;38.928;-77.052;2023-02-28T09:18:53;99225.41;;;7.57;100.00
6524;BME280;3295;38.928;-77.052;2023-02-28T09:21:21;99230.78;;;7.66;100.00
6524;BME280;3295;38.928;-77.052;2023-02-28T09:23:49;99225.72;;;7.66;100.00
6524;BME280;3295;38.928;-77.052;2023-02-28T09:26:19;99230.47;;;7.57;100.00
6524;BME280;3295;38.928;-77.052;2023-02-28T09:28:48;99233.81;;;7.56;100.00
6524;BME280;3295;38.928;-77.052;2023-02-28T09:31:17;99232.84;;;7.53;100.00
6524;BME280;3295;38.928;-77.052;2023-02-28T09:33:48;99248.50;;;7.65;100.00
6524;BME280;3295;38.928;-77.052;2023-02-28T09:36:16;99252.28;;;7.76;100.00
6524;BME280;3295;38.928;-77.052;2023-02-28T09:38:44;99244.81;;;7.80;100.00
6524;BME280;3295;38.928;-77.052;2023-02-28T09:41:16;99255.25;;;7.88;100.00
6524;BME280;3295;38.928;-77.052;2023-02-28T09:43:47;99265.66;;;7.96;100.00
6524;BME280;3295;38.928;-77.052;2023-02-28T09:46:29;99270.13;;;8.03;100.00
6524;BME280;3295;38.928;-77.052;2023-02-28T09:49:02;99266.84;;;8.05;100.00
6524;BME280;3295;38.928;-77.052;2023-02-28T09:51:44;99270.09;;;8.01;100.00
6524;BME280;3295;38.928;-77.052;2023-02-28T09:54:16;99280.56;;;7.87;100.00
6524;BME280;3295;38.928;-77.052;2023-02-28T09:56:49;99291.69;;;7.90;100.00
6524;BME280;3295;38.928;-77.052;2023-02-28T09:59:30;99287.00;;;8.01;100.00
6524;BME280;3295;38.928;-77.052;2023-02-28T10:02:04;99279.56;;;8.07;100.00
6524;BME280;3295;38.928;-77.052;2023-02-28T10:04:46;99290.81;;;8.13;100.00
6524;BME280;3295;38.928;-77.052;2023-02-28T10:07:25;99285.44;;;8.04;100.00
6524;BME280;3295;38.928;-77.052;2023-02-28T10:09:58;99297.25;;;8.04;100.00
6524;BME280;3295;38.928;-77.052;2023-02-28T10:12:32;99302.91;;;7.97;100.00
6524;BME280;3295;38.928;-77.052;2023-02-28T10:15:00;99312.97;;;7.94;100.00
6524;BME280;3295;38.928;-77.052;2023-02-28T10:17:36;99316.53;;;7.99;100.00
6524;BME280;3295;38.928;-77.052;2023-02-28T10:20:10;99324.56;;;8.11;100.00
6524;BME280;3295;38.928;-77.052;2023-02-28T10:22:48;99330.63;;;8.14;100.00
6524;BME280;3295;38.928;-77.052;2023-02-28T10:25:19;99337.38;;;8.14;100.00
6524;BME280;3295;38.928;-77.052;2023-02-28T10:27:48;99337.25;;;8.11;100.00
6524;BME280;3295;38.928;-77.052;2023-02-28T10:30:17;99350.66;;;8.07;100.00
6524;BME280;3295;38.928;-77.052;2023-02-28T10:32:49;99340.19;;;7.98;100.00
6524;BME280;3295;38.928;-77.052;2023-02-28T10:35:22;99369.16;;;8.03;100.00
6524;BME280;3295;38.928;-77.052;2023-02-28T10:37:54;99389.88;;;8.15;100.00
6524;BME280;3295;38.928;-77.052;2023-02-28T10:40:29;99387.41;;;8.16;100.00
6524;BME280;3295;38.928;-77.052;2023-02-28T10:42:59;99384.19;;;8.22;100.00
6524;BME280;3295;38.928;-77.052;2023-02-28T10:45:28;99376.50;;;8.19;100.00
6524;BME280;3295;38.928;-77.052;2023-02-28T10:47:59;99378.13;;;8.17;100.00
6524;BME280;3295;38.928;-77.052;2023-02-28T10:50:34;99396.66;;;8.14;100.00
6524;BME280;3295;38.928;-77.052;2023-02-28T10:53:31;99410.41;;;8.21;100.00
6524;BME280;3295;38.928;-77.052;2023-02-28T10:56:02;99427.72;;;8.31;100.00
6524;BME280;3295;38.928;-77.052;2023-02-28T10:58:32;99428.34;;;8.26;100.00
6524;BME280;3295;38.928;-77.052;2023-02-28T11:01:14;99434.56;;;8.32;100.00
6524;BME280;3295;38.928;-77.052;2023-02-28T11:03:42;99429.69;;;8.38;100.00
6524;BME280;3295;38.928;-77.052;2023-02-28T11:06:17;99436.50;;;8.39;100.00
6524;BME280;3295;38.928;-77.052;2023-02-28T11:08:51;99431.41;;;8.39;100.00
6524;BME280;3295;38.928;-77.052;2023-02-28T11:11:21;99449.88;;;8.35;100.00
6524;BME280;3295;38.928;-77.052;2023-02-28T11:13:52;99468.94;;;8.46;100.00
6524;BME280;3295;38.928;-77.052;2023-02-28T11:16:21;99479.38;;;8.54;100.00
6524;BME280;3295;38.928;-77.052;2023-02-28T11:18:57;99479.75;;;8.65;100.00
6524;BME280;3295;38.928;-77.052;2023-02-28T11:21:29;99478.81;;;8.63;100.00
6524;BME280;3295;38.928;-77.052;2023-02-28T11:24:03;99480.41;;;8.59;100.00
6524;BME280;3295;38.928;-77.052;2023-02-28T11:26:40;99476.38;;;8.66;100.00
6524;BME280;3295;38.928;-77.052;2023-02-28T11:29:17;99495.97;;;8.68;100.00
6524;BME280;3295;38.928;-77.052;2023-02-28T11:32:13;99503.53;;;8.67;100.00
6524;BME280;3295;38.928;-77.052;2023-02-28T11:34:44;99500.28;;;8.71;100.00
6524;BME280;3295;38.928;-77.052;2023-02-28T11:37:16;99503.75;;;8.73;100.00
6524;BME280;3295;38.928;-77.052;2023-02-28T11:39:45;99504.03;;;8.80;100.00
6524;BME280;3295;38.928;-77.052;2023-02-28T11:42:27;99528.41;;;8.75;100.00
6524;BME280;3295;38.928;-77.052;2023-02-28T11:45:11;99534.25;;;8.73;100.00
6524;BME280;3295;38.928;-77.052;2023-02-28T11:47:47;99539.34;;;8.73;100.00
6524;BME280;3295;38.928;-77.052;2023-02-28T11:50:31;99549.41;;;8.70;100.00
6524;BME280;3295;38.928;-77.052;2023-02-28T11:53:10;99550.84;;;8.63;100.00
6524;BME280;3295;38.928;-77.052;2023-02-28T11:55:45;99547.22;;;8.57;100.00
6524;BME280;3295;38.928;-77.052;2023-02-28T11:58:25;99555.66;;;8.55;100.00
6524;BME280;3295;38.928;-77.052;2023-02-28T12:01:13;99571.22;;;8.65;100.00
6524;BME280;3295;38.928;-77.052;2023-02-28T12:03:56;99574.69;;;8.67;100.00
6524;BME280;3295;38.928;-77.052;2023-02-28T12:06:30;99581.50;;;8.68;100.00
6524;BME280;3295;38.928;-77.052;2023-02-28T12:09:19;99589.81;;;8.64;100.00
6524;BME280;3295;38.928;-77.052;2023-02-28T12:11:53;99607.38;;;8.80;100.00
6524;BME280;3295;38.928;-77.052;2023-02-28T12:14:42;99610.22;;;8.87;100.00
6524;BME280;3295;38.928;-77.052;2023-02-28T12:17:22;99605.00;;;8.84;100.00
6524;BME280;3295;38.928;-77.052;2023-02-28T12:20:02;99603.16;;;9.04;100.00
6524;BME280;3295;38.928;-77.052;2023-02-28T12:22:38;99608.84;;;8.97;100.00
6524;BME280;3295;38.928;-77.052;2023-02-28T12:25:45;99597.69;;;8.94;100.00
6524;BME280;3295;38.928;-77.052;2023-02-28T12:28:20;99612.56;;;8.83;100.00
6524;BME280;3295;38.928;-77.052;2023-02-28T12:30:54;99619.16;;;8.78;100.00
6524;BME280;3295;38.928;-77.052;2023-02-28T12:33:28;99624.25;;;8.78;100.00
6524;BME280;3295;38.928;-77.052;2023-02-28T12:36:01;99627.72;;;8.80;100.00
6524;BME280;3295;38.928;-77.052;2023-02-28T12:38:36;99633.47;;;8.98;100.00
6524;BME280;3295;38.928;-77.052;2023-02-28T12:41:12;99646.44;;;9.06;100.00
6524;BME280;3295;38.928;-77.052;2023-02-28T12:43:44;99647.00;;;8.97;100.00
6524;BME280;3295;38.928;-77.052;2023-02-28T12:46:16;99645.03;;;8.90;100.00
6524;BME280;3295;38.928;-77.052;2023-02-28T12:48:47;99653.69;;;8.95;100.00
6524;BME280;3295;38.928;-77.052;2023-02-28T12:51:17;99658.03;;;8.98;100.00
6524;BME280;3295;38.928;-77.052;2023-02-28T12:53:54;99664.97;;;9.02;100.00
6524;BME280;3295;38.928;-77.052;2023-02-28T12:56:34;99671.63;;;8.98;100.00
6524;BME280;3295;38.928;-77.052;2023-02-28T12:59:10;99672.53;;;9.00;100.00
6524;BME280;3295;38.928;-77.052;2023-02-28T13:01:54;99686.22;;;9.04;100.00
6524;BME280;3295;38.928;-77.052;2023-02-28T13:04:46;99695.31;;;8.97;100.00
6524;BME280;3295;38.928;-77.052;2023-02-28T13:10:16;99712.66;;;8.85;100.00
6524;BME280;3295;38.928;-77.052;2023-02-28T13:12:50;99717.94;;;8.91;100.00
6524;BME280;3295;38.928;-77.052;2023-02-28T13:15:22;99716.91;;;9.08;100.00
6524;BME280;3295;38.928;-77.052;2023-02-28T13:17:52;99720.59;;;9.16;100.00
6524;BME280;3295;38.928;-77.052;2023-02-28T13:20:23;99723.97;;;9.15;100.00
6524;BME280;3295;38.928;-77.052;2023-02-28T13:22:52;99724.13;;;9.20;100.00
6524;BME280;3295;38.928;-77.052;2023-02-28T13:25:51;99727.31;;;9.14;100.00
6524;BME280;3295;38.928;-77.052;2023-02-28T13:34:41;99746.03;;;9.16;100.00
6524;BME280;3295;38.928;-77.052;2023-02-28T13:37:35;99748.00;;;9.23;100.00